Home > Products > Valid Products > TAF

000
FTUS43 KMQT 301129
TAFSAW
TAF
KSAW 301129Z 3012/0112 36005KT 5SM -SHRA BR OVC008
     FM301300 36013G19KT 6SM -DZ BR OVC010
     FM301600 35013G19KT P6SM -DZ OVC015
     FM302000 35011G18KT P6SM OVC020
     FM010100 35006KT P6SM SCT030
     FM010700 36010KT P6SM SKC=



000
FTUS43 KMQT 301129
TAFCMX
TAF
KCMX 301129Z 3012/0112 36015KT 6SM -SHRA BR OVC010
     FM301400 02012KT P6SM OVC015
     FM301600 02010KT P6SM BKN025
     FM301800 36010KT P6SM SCT030
     FM010100 32006KT P6SM SKC
     FM010700 29003KT P6SM SKC=



000
FTUS43 KMQT 300930 AAA
TAFCMX
TAF AMD
KCMX 300930Z 3010/0106 36015KT 6SM -SHRA BR OVC007
     FM301500 02012KT P6SM OVC012
     FM301700 02010KT P6SM BKN025
     FM302000 36010KT P6SM SCT030
     FM010100 32006KT P6SM SKC=



000
FTUS43 KMQT 300637 AAA
TAFSAW
TAF AMD
KSAW 300637Z 3007/0106 36004KT 1SM -SHRA BR OVC003
     FM301300 36013G19KT 6SM -DZ BR OVC003
     FM301700 36013G19KT P6SM VCSH OVC008
     FM302000 36011G18KT P6SM OVC012
     FM010100 35007KT P6SM SCT025=



000
FTUS43 KMQT 300527
TAFCMX
TAF
KCMX 300527Z 3006/0106 36012KT 2SM -SHRA BR OVC004
     FM301300 02012KT 6SM BR OVC008
     FM301500 02012KT P6SM OVC012
     FM301700 02010KT P6SM BKN025
     FM302000 36010KT P6SM SCT030
     FM010100 32006KT P6SM SKC=



000
FTUS43 KMQT 300527
TAFSAW
TAF
KSAW 300527Z 3006/0106 36004KT 5SM -SHRA BR SCT004 OVC008
      TEMPO 3006/3007 BKN013
     FM300800 35005KT 2SM -SHRA BR OVC003
     FM301300 36013G19KT 6SM -DZ BR OVC003
     FM301700 36013G19KT P6SM VCSH OVC008
     FM302000 36011G18KT P6SM OVC012
     FM010100 35007KT P6SM SCT025=



000
FTUS43 KMQT 300527
TAFCMX
TAF
KCMX 300527Z 3006/0106 36012KT 2SM -SHRA BR OVC004
     FM301300 02012KT 6SM BR OVC008
     FM301500 02012KT P6SM OVC012
     FM301700 02010KT P6SM BKN025
     FM302000 36010KT P6SM SCT030
     FM010100 32006KT P6SM SKC=



000
FTUS43 KMQT 300527
TAFSAW
TAF
KSAW 300527Z 3006/0106 36004KT 5SM -SHRA BR SCT004 OVC008
      TEMPO 3006/3007 BKN013
     FM300800 35005KT 2SM -SHRA BR OVC003
     FM301300 36013G19KT 6SM -DZ BR OVC003
     FM301700 36013G19KT P6SM VCSH OVC008
     FM302000 36011G18KT P6SM OVC012
     FM010100 35007KT P6SM SCT025=



000
FTUS43 KMQT 300331 AAA
TAFSAW
TAF AMD
KSAW 300331Z 3004/3024 VRB03KT 6SM -SHRA BR SCT015 OVC025
      TEMPO 3004/3006 5SM BR SCT008 BKN015
     FM300600 35003KT 5SM -SHRA BR SCT004 OVC008
     FM300800 35005KT 1SM -SHRA BR OVC003
     FM301300 36011G18KT 6SM -SHRA OVC003
     FM301700 36011G18KT P6SM VCSH OVC008
     FM302000 36011G18KT P6SM OVC012=



000
FTUS43 KMQT 292332
TAFCMX
TAF
KCMX 292332Z 3000/3024 33006KT P6SM -SHRA SCT015 BKN050
     FM300200 33005KT 6SM -SHRA BR SCT004 OVC015
     FM300400 36011KT 2SM -SHRA BR OVC004
     FM301300 02012KT 6SM BR OVC008
     FM301700 02010KT P6SM BKN025
     FM302000 36010KT P6SM SCT030=



000
FTUS43 KMQT 292332
TAFSAW
TAF
KSAW 292332Z 3000/3024 VRB03KT P6SM -SHRA BKN050
     FM300400 VRB03KT 6SM -SHRA BR OVC025
     FM300600 35003KT 5SM -SHRA BR SCT004 OVC008
     FM300800 35005KT 1SM -SHRA BR OVC003
     FM301300 36011G18KT 6SM -SHRA OVC003
     FM301700 36011G18KT P6SM VCSH OVC008
     FM302000 36011G18KT P6SM OVC012=



000
FTUS43 KMQT 292235 AAC
TAFSAW
TAF AMD
KSAW 292235Z 2923/3018 VRB03KT P6SM -SHRA BKN050
     FM300500 VRB03KT 6SM -SHRA BR OVC025
     FM300700 33003KT 5SM -SHRA BR OVC010
     FM301000 35005KT 1SM -SHRA BR OVC005
     FM301500 34009KT 5SM -SHRA BR OVC003
     FM301700 35010KT P6SM VCSH OVC008=



000
FTUS43 KMQT 292017 AAB
TAFSAW
TAF AMD
KSAW 292017Z 2920/3018 22009KT P6SM VCSH BKN050
      TEMPO 2920/2924 6SM -TSRA BKN035CB
     FM300100 VRB03KT P6SM -SHRA BKN050
     FM300500 VRB03KT 6SM -SHRA BR OVC025
     FM300700 33003KT 5SM -SHRA BR OVC010
     FM301000 35005KT 1SM -SHRA BR OVC005
     FM301500 34009KT 5SM -SHRA BR OVC003
     FM301700 35010KT P6SM VCSH OVC008=



000
FTUS43 KMQT 291744 AAA
TAFSAW
TAF AMD
KSAW 291744Z 2918/3018 20009KT P6SM VCSH BKN050
      TEMPO 2918/2921 6SM -TSRA BKN040CB
     FM300100 VRB03KT P6SM -SHRA BKN050
     FM300500 VRB03KT 6SM -SHRA BR OVC025
     FM300700 33003KT 5SM -SHRA BR OVC010
     FM301000 35005KT 1SM -SHRA BR OVC005
     FM301500 34009KT 5SM -SHRA BR OVC003
     FM301700 35010KT P6SM VCSH OVC008=



000
FTUS43 KMQT 291744 AAA
TAFSAW
TAF AMD
KSAW 291744Z 2918/3018 20009KT P6SM VCSH BKN050
      TEMPO 2918/2921 6SM -TSRA BKN040CB
     FM300100 VRB03KT P6SM -SHRA BKN050
     FM300500 VRB03KT 6SM -SHRA BR OVC025
     FM300700 33003KT 5SM -SHRA BR OVC010
     FM301000 35005KT 1SM -SHRA BR OVC005
     FM301500 34009KT 5SM -SHRA BR OVC003
     FM301700 35010KT P6SM VCSH OVC008=



000
FTUS43 KMQT 291733
TAFCMX
TAF
KCMX 291733Z 2918/3018 28009KT P6SM VCSH BKN040
     FM300200 32004KT P6SM -SHRA BKN040
     FM300400 33005KT 6SM -SHRA BR OVC015
     FM300600 35011KT 1SM -SHRA BR OVC003
     FM301000 01010KT 3SM BR OVC003
     FM301300 02012KT 6SM BR OVC008
     FM301700 02010KT P6SM BKN025=



000
FTUS43 KMQT 291733
TAFSAW
TAF
KSAW 291733Z 2918/3018 20009KT P6SM VCSH BKN050
     FM300100 VRB03KT P6SM -SHRA BKN050
     FM300500 VRB03KT 6SM -SHRA BR OVC025
     FM300700 33003KT 5SM -SHRA BR OVC010
     FM301000 35005KT 1SM -SHRA BR OVC005
     FM301500 34009KT 5SM -SHRA BR OVC003
     FM301700 35010KT P6SM VCSH OVC008=



000
FTUS43 KMQT 291120
TAFCMX
TAF
KCMX 291120Z 2912/3012 28005KT P6SM BKN120
     FM291500 27009KT P6SM VCSH BKN060
     FM300200 34004KT P6SM BKN010
     FM300600 35011KT 1SM BR OVC003=



000
FTUS43 KMQT 291120
TAFSAW
TAF
KSAW 291120Z 2912/3012 20003KT P6SM SCT120
     FM291400 21007KT P6SM BKN040
     FM291600 19003KT P6SM VCSH BKN040
     FM300700 36006KT 1SM BR OVC004=



000
FTUS43 KMQT 290907 AAB
TAFSAW
TAF AMD
KSAW 290907Z 2909/3006 20003KT P6SM BKN100
     FM291300 21007KT P6SM BKN050
     FM291500 19007KT P6SM VCSH BKN060=



000
FTUS43 KMQT 290804 AAA
TAFSAW
TAF AMD
KSAW 290804Z 2908/3006 00000KT 1/2SM FG VV003
     FM291100 20003KT P6SM BKN100
     FM291300 21007KT P6SM BKN050
     FM291500 19007KT P6SM VCSH BKN060=



000
FTUS43 KMQT 290520
TAFCMX
TAF
KCMX 290520Z 2906/3006 28005KT P6SM SCT080 BKN150
     FM291500 27009KT P6SM VCSH BKN060
     FM300200 34004KT P6SM BKN010=



000
FTUS43 KMQT 290520
TAFCMX
TAF
KCMX 290520Z 2906/3006 28005KT P6SM SCT080 BKN150
     FM291500 27009KT P6SM VCSH BKN060
     FM300200 34004KT P6SM BKN010=



000
FTUS43 KMQT 290520
TAFSAW
TAF
KSAW 290520Z 2906/3006 20003KT P6SM BKN100
     FM291300 21007KT P6SM BKN050
     FM291500 19007KT P6SM VCSH BKN060=



000
FTUS43 KMQT 290520
TAFSAW
TAF
KSAW 290520Z 2906/3006 20003KT P6SM BKN100
     FM291300 21007KT P6SM BKN050
     FM291500 19007KT P6SM VCSH BKN060=



000
FTUS43 KMQT 282336
TAFSAW
TAF
KSAW 282336Z 2900/2924 VRB03KT P6SM SCT090 BKN150
     FM291300 21007KT P6SM BKN050
     FM291500 19007KT P6SM VCSH BKN060=



000
FTUS43 KMQT 282336
TAFCMX
TAF
KCMX 282336Z 2900/2924 19006KT P6SM SCT080 BKN150
     FM290500 25006KT P6SM BKN080
     FM291500 27008KT P6SM VCSH BKN060=



000
FTUS43 KMQT 282336
TAFSAW
TAF
KSAW 282336Z 2900/2924 VRB03KT P6SM SCT090 BKN150
     FM291300 21007KT P6SM BKN050
     FM291500 19007KT P6SM VCSH BKN060=



000
FTUS43 KMQT 282336
TAFCMX
TAF
KCMX 282336Z 2900/2924 19006KT P6SM SCT080 BKN150
     FM290500 25006KT P6SM BKN080
     FM291500 27008KT P6SM VCSH BKN060=



000
FTUS43 KMQT 282206 AAB
TAFSAW
TAF AMD
KSAW 282206Z 2822/2918 VRB05KT P6SM VCSH BKN100
     FM290000 VRB03KT P6SM BKN100
     FM290400 20004KT P6SM SCT100
     FM291600 23003KT P6SM -SHRA BKN080=



000
FTUS43 KMQT 282159 AAA
TAFCMX
TAF AMD
KCMX 282159Z 2822/2918 16007KT P6SM SCT070 BKN150
     FM290200 24006KT P6SM BKN060
     FM291500 27006KT P6SM -SHRA BKN060=



000
FTUS43 KMQT 281948 AAA
TAFSAW
TAF AMD
KSAW 281948Z 2820/2918 02010KT P6SM VCSH BKN050
     FM282200 10005KT P6SM BKN100
     FM290400 20004KT P6SM SCT100
     FM291600 23003KT P6SM -SHRA BKN080=



000
FTUS43 KMQT 281727
TAFSAW
TAF
KSAW 281727Z 2818/2918 20004KT P6SM VCSH BKN070
     FM282000 13005KT P6SM BKN100
     FM290400 20004KT P6SM SCT100
     FM291600 23003KT P6SM -SHRA BKN080=



000
FTUS43 KMQT 281727
TAFCMX
TAF
KCMX 281727Z 2818/2918 30004KT P6SM SCT050 BKN100
     FM281900 00000KT P6SM VCSH BKN050
     FM290200 24006KT P6SM BKN060
     FM291500 27006KT P6SM -SHRA BKN060=



000
FTUS43 KMQT 281727
TAFCMX
TAF
KCMX 281727Z 2818/2918 30004KT P6SM SCT050 BKN100
     FM281900 00000KT P6SM VCSH BKN050
     FM290200 24006KT P6SM BKN060
     FM291500 27006KT P6SM -SHRA BKN060=



000
FTUS43 KMQT 281727
TAFSAW
TAF
KSAW 281727Z 2818/2918 20004KT P6SM VCSH BKN070
     FM282000 13005KT P6SM BKN100
     FM290400 20004KT P6SM SCT100
     FM291600 23003KT P6SM -SHRA BKN080=



000
FTUS43 KMQT 281127
TAFSAW
TAF
KSAW 281127Z 2812/2912 19003KT P6SM SCT080
     FM281500 20007KT P6SM BKN060
     FM281800 04007KT P6SM VCSH BKN060
     FM290200 17004KT P6SM BKN070=



000
FTUS43 KMQT 281127
TAFCMX
TAF
KCMX 281127Z 2812/2912 28003KT P6SM SCT100 BKN250
     FM281900 08007KT P6SM VCSH BKN060
     FM282300 VRB03KT P6SM SCT070=



000
FTUS43 KMQT 280520
TAFCMX
TAF
KCMX 280520Z 2806/2906 VRB03KT P6SM SCT200
     FM281300 28005KT P6SM SCT200
     FM281900 08007KT P6SM VCSH BKN060
     FM282300 VRB03KT P6SM SCT070=



000
FTUS43 KMQT 280520
TAFSAW
TAF
KSAW 280520Z 2806/2906 19003KT P6SM FEW150
     FM281600 20007KT P6SM BKN050
     FM282000 04007KT P6SM VCSH BKN060
     FM290200 17004KT P6SM BKN070=



000
FTUS43 KMQT 272338
TAFCMX
TAF
KCMX 272338Z 2800/2824 VRB03KT P6SM SCT200
     FM281300 28004KT P6SM SCT200
     FM281800 08007KT P6SM SCT060=



000
FTUS43 KMQT 272338
TAFSAW
TAF
KSAW 272338Z 2800/2824 07005KT P6SM SCT100
     FM280200 19003KT P6SM FEW150
     FM281600 20007KT P6SM BKN050
     FM282000 04007KT P6SM VCSH BKN060=



000
FTUS43 KMQT 271732
TAFSAW
TAF
KSAW 271732Z 2718/2818 13006KT P6SM SCT050
     FM280200 19003KT P6SM FEW150
     FM281600 20007KT P6SM SCT050=



000
FTUS43 KMQT 271732
TAFCMX
TAF
KCMX 271732Z 2718/2818 VRB04KT P6SM FEW080
     FM280200 13004KT P6SM FEW150
     FM281300 28003KT P6SM SCT100=



000
FTUS43 KMQT 271732
TAFSAW
TAF
KSAW 271732Z 2718/2818 13006KT P6SM SCT050
     FM280200 19003KT P6SM FEW150
     FM281600 20007KT P6SM SCT050=



000
FTUS43 KMQT 271732
TAFCMX
TAF
KCMX 271732Z 2718/2818 VRB04KT P6SM FEW080
     FM280200 13004KT P6SM FEW150
     FM281300 28003KT P6SM SCT100=



    US Dept of Commerce
    National Oceanic and Atmospheric Administration
    National Weather Service
    1325 East West Highway
    Silver Spring, MD 20910
    Page Author: NWS Internet Services Team
Disclaimer
Information Quality
Credits
Glossary
Privacy Policy
Freedom of Information Act (FOIA)
About Us
Career Opportunities